Challenge des Allures Libres de Gaume

Les Sources Du Ton - Châtillon (10.50 km)

dimanche 09 février 2020

Le classement original se trouve sur : http://www.acdampicourt.be
CHALLENGE DES ALLURES LIBRES DE GAUME
LES SOURCES DU TON - CHÂTILLON
DISTANCE : 10.50 km
dimanche 09 février 2020
 
Place dos NOM Cat. Pl/Cat. temps temps/km Vitesse
01:00:00              
1 559 BODEUX Jean-Luc V1 1 00:39:51 03:48 15.81
2 299 CLAUSSE Christophe S 1 00:40:16 03:50 15.65
3 560 MAKACI Mourad S 2 00:40:26 03:51 15.58
4 47 DA SILVA Arnaud S 3 00:40:34 03:52 15.53
5 597 VERTÉ Patrick V1 2 00:41:01 03:54 15.36
6 361 FRANÇOIS Aurélien S 4 00:42:07 04:01 14.96
7 593 LECLUSE Alain-Claire S 5 00:42:58 04:06 14.66
8 697 MASSON Julien S 6 00:43:32 04:09 14.47
9 685 GOMRÉE Pierre S 7 00:43:34 04:09 14.46
10 672 THIRY Lenaïc S 8 00:43:48 04:10 14.38
11 626 DEBEN Jean-François S 9 00:43:51 04:11 14.37
12 443 EILON Oren V1 3 00:43:56 04:11 14.34
13 880 LEBLICQ Romaric S 10 00:44:14 04:13 14.24
14 56 PIERRET Serge V2 1 00:44:21 04:13 14.21
15 598 STEFFEN John S 11 00:44:22 04:14 14.20
16 404 TONGLET Martin S 12 00:44:24 04:14 14.19
17 349 BASQUIN Franck V1 4 00:44:50 04:16 14.05
18 398 GALLAIRE Pascal V2 2 00:45:03 04:17 13.98
19 5 GILLET Raphaël S 13 00:45:06 04:18 13.97
20 130 BREVERY Jérémy S 14 00:45:11 04:18 13.94
21 585 COSTA Marcio V1 5 00:45:22 04:19 13.89
22 650 GODFRIND Fabrice S 15 00:45:23 04:19 13.88
23 413 VIRLEZ Geoffrey S 16 00:45:26 04:20 13.87
24 637 DOUMONT Damien S 17 00:45:29 04:20 13.85
25 368 DOCQUIER Philippe V2 3 00:46:14 04:24 13.63
26 491 CATTRYSSE Dominic V1 6 00:46:25 04:25 13.57
27 520 AUTPHENNE Michaël V2 4 00:46:48 04:27 13.46
28 477 BERTOUX Simon S 18 00:47:07 04:29 13.37
29 451 SIMEON Michaël S 19 00:47:23 04:31 13.30
30 623 KIELBASA Johan S 20 00:47:43 04:33 13.20
31 295 RICCIARDELLI Giorgio V1 7 00:47:52 04:34 13.16
32 187 DIDIER Christophe V2 5 00:47:53 04:34 13.16
33 475 PECHON Eric V3 1 00:48:00 04:34 13.13
34 759 ELAPE MUSE Abdihakin S 21 00:48:07 04:35 13.09
35 260 HENROTTE Sébastien V1 8 00:48:08 04:35 13.09
36 590 MILLARD Yannick V1 9 00:48:09 04:35 13.08
37 344 BAUDOIN Rémi V2 6 00:48:22 04:36 13.03
38 419 FIVET Mathieu S 22 00:48:26 04:37 13.01
39 444 MOGIN Margot F 1 00:48:29 04:37 12.99
40 228 CATOT Frédéric V1 10 00:48:31 04:37 12.99
41 95 HUBERT Guillaume S 23 00:48:33 04:37 12.98
42 605 PIROTTE Vinnie S 24 00:48:36 04:38 12.96
43 2025 BLOCK Francis V3 2 00:48:47 04:39 12.91
44 408 SCHILTZ Sven S 25 00:48:49 04:39 12.91
45 428 MORELLE Gaetan V1 11 00:48:51 04:39 12.90
46 639 DE AZEVEDO Christophe S 26 00:49:04 04:40 12.84
47 446 MOGIN Laurent V2 7 00:49:16 04:42 12.79
48 221 MCCABE Andrew V1 12 00:49:18 04:42 12.78
49 575 PICCHI Martial V2 8 00:49:27 04:43 12.74
50 102 DIDIER Sébastien V1 13 00:49:34 04:43 12.71
51 448 REUTER Cédric S 27 00:49:59 04:46 12.60
52 508 MALCUIT Geoffrey S 28 00:50:14 04:47 12.54
53 586 NON Valable (Double inscription 01) S 29 00:50:16 04:47 12.53
54 552 TALBOT Jérôme S 30 00:50:41 04:50 12.43
55 591 COTTIN Raphaël V1 14 00:50:43 04:50 12.42
56 219 BAUWIN Géraldine A1 1 00:50:45 04:50 12.41
57 360 SENSIQUE Nicolas V1 15 00:50:46 04:50 12.41
58 188 LACOURT Régis V3 3 00:50:48 04:50 12.40
59 505 MALCUIT Florent V2 9 00:50:52 04:51 12.39
60 417 MAISSIN Bruno V1 16 00:51:00 04:51 12.35
61 675 THOMÉ Mathias JH 1 00:51:01 04:52 12.35
62 208 HUDELOT Eric V3 4 00:51:04 04:52 12.34
63 252 PONCELET Willy V3 5 00:51:16 04:53 12.29
64 568 FRANCIS Yves V2 10 00:51:21 04:53 12.27
65 327 THIELE Marcel V1 17 00:51:26 04:54 12.25
66 595 MARINO Michaël S 31 00:51:27 04:54 12.24
67 655 BRIGODE Fabian S 32 00:51:28 04:54 12.24
68 663 BEARZATTO Melissa F 2 00:51:39 04:55 12.20
69 536 BRANLE Thierry S 33 00:51:40 04:55 12.19
70 50 RONGVAUX Bernard V3 6 00:51:55 04:57 12.13
71 1000 GAUJARD Michel V2 11 00:51:58 04:57 12.12
72 37 GLAUDE Lionel S 34 00:52:07 04:58 12.09
73 645 DERENNE Allain S 35 00:52:09 04:58 12.08
74 604 BOUDOU Youssef S 36 00:52:14 04:58 12.06
75 409 REISCH Mathias V3 7 00:52:16 04:59 12.05
76 60 MAURY Fanny A1 2 00:52:18 04:59 12.05
77 264 BALON José V3 8 00:52:20 04:59 12.04
78 330 MOREAU Norman V1 18 00:52:22 04:59 12.03
79 649 MARCHAL Antony V1 19 00:52:25 05:00 12.02
80 545 BLOMMAERT Christine A2 1 00:52:30 05:00 12.00
81 452 DELAFONTAINE Simon S 37 00:52:47 05:02 11.94
82 329 OGER Bruno V2 12 00:52:50 05:02 11.92
83 569 HOEFLER Nicolas S 38 00:53:01 05:03 11.88
84 416 DEWEZ Didier V1 20 00:53:07 05:04 11.86
85 205 KIM Eric V2 13 00:53:10 05:04 11.85
86 427 LAMESCH Laurent V1 21 00:53:14 05:04 11.83
87 498 DESQUILBET Maximilien S 39 00:53:18 05:05 11.82
88 423 PECHON Renaud S 40 00:53:23 05:05 11.80
89 566 GUELFF Christelle A1 3 00:53:29 05:06 11.78
90 469 RENAULT Cédric S 41 00:53:33 05:06 11.76
91 654 CAYPHAS Michaël S 42 00:53:49 05:08 11.71
92 244 POELS Luk V1 22 00:53:52 05:08 11.70
93 363 BARTHAUX Benoît S 43 00:53:54 05:08 11.69
94 636 BARTHAUX Sébastien S 44 00:53:57 05:08 11.68
95 494 VENERUCCI David V1 23 00:53:58 05:08 11.67
96 104 HENRY Eric V1 24 00:54:01 05:09 11.66
97 553 SERVAGI Laurent V1 25 00:54:03 05:09 11.66
98 594 MOTCH Réginald V1 26 00:54:05 05:09 11.65
99 348 LÉVEILLÉ Thierry V2 14 00:54:07 05:09 11.64
100 367 LEQUEUX Olivier V1 27 00:54:09 05:09 11.63
101 589 BAIJOT Fabrice V1 28 00:54:12 05:10 11.62
102 312 MOLTER Roland V2 15 00:54:14 05:10 11.62
103 2415 BASTIN Geneviève A2 2 00:54:17 05:10 11.61
104 317 HERMAN Eric V1 29 00:54:30 05:11 11.56
105 325 PAQUET Raphaël V1 30 00:54:36 05:12 11.54
106 659 MICHEL Hugo JH 2 00:54:38 05:12 11.53
107 108 BARBERON Guillaume S 45 00:54:40 05:12 11.52
108 91 DICUONZO Pascal V2 16 00:54:52 05:14 11.48
109 473 LEFEBVRE David S 46 00:54:56 05:14 11.47
110 564 MATHIEU Arnaud V2 17 00:55:06 05:15 11.43
111 1192 SCAILLET Séverine A1 4 00:55:12 05:15 11.41
112 608 RICHARD Antoine S 47 00:55:15 05:16 11.40
113 143 DUQUÉ Eric V2 18 00:55:16 05:16 11.40
114 599 LIMPACH Michaël S 48 00:55:20 05:16 11.39
115 488 DE BRESSING Michel V3 9 00:55:22 05:16 11.38
116 203 D'ANTUONO Michele V2 19 00:55:25 05:17 11.37
117 549 THERER Vincent V1 31 00:55:30 05:17 11.35
118 610 GOFFIN Fabrice V1 32 00:55:38 05:18 11.32
119 389 WAGNER Gilles V1 33 00:55:40 05:18 11.32
120 2000 BALON Philippe V1 34 00:55:43 05:18 11.31
121 283 BROCARD Cyril S 49 00:55:45 05:19 11.30
122 331 HAUFROID Stéphane V1 35 00:55:47 05:19 11.29
123 435 LEFORT Pierre V1 36 00:55:51 05:19 11.28
124 482 PARISSE Raphaël S 50 00:55:54 05:19 11.27
125 55 BOKSEBELD André V2 20 00:55:56 05:20 11.26
126 565 WAVREILLE Bertrand V1 37 00:56:00 05:20 11.25
127 397 GALLAIRE Sylvie A2 3 00:56:02 05:20 11.24
128 318 DE BECKER Guy V3 10 00:56:03 05:20 11.24
129 120 BERNAGOU Esteban JH 3 00:56:05 05:20 11.23
130 13 JAMINON Jérôme V1 38 00:56:09 05:21 11.22
131 478 MARINO Sébastien S 51 00:56:14 05:21 11.20
132 526 JACOB Claudia A2 4 00:56:18 05:22 11.19
133 652 BLEES Alexandre S 52 00:56:20 05:22 11.18
134 1308 MINET Guillaume JH 4 00:56:25 05:22 11.17
135 412 BAUDSON Nicolas S 53 00:56:27 05:23 11.16
136 634 DIDIER Laurent V2 21 00:56:30 05:23 11.15
137 211 GEORGES Stevens S 54 00:56:39 05:24 11.12
138 571 GABRIELLI Audrey A1 5 00:56:43 05:24 11.11
139 1309 RENARD Jean-Philippe V2 22 00:56:44 05:24 11.10
140 25 ADAM Servane F 3 00:56:47 05:24 11.09
141 136 THIBEAU François V2 23 00:56:53 05:25 11.08
142 658 PERL Frédéric V1 39 00:56:55 05:25 11.07
143 592 HUYSENTRUYT Stijn V1 40 00:56:57 05:25 11.06
144 517 PONCIN Olivier V1 41 00:57:01 05:26 11.05
145 653 UYTTERSPROT Mélia F 4 00:57:03 05:26 11.04
146 646 MARTIN Gilles V1 42 00:57:05 05:26 11.04
147 126 FRANÇOIS Marilyn A1 6 00:57:08 05:26 11.03
148 64 BELLENGER Elisé-Roger V2 24 00:57:10 05:27 11.02
149 581 DEPAUE Marc V2 25 00:57:13 05:27 11.01
150 680 ROLAND Eloïse F 5 00:57:16 05:27 11.00
151 602 BLOOM Michaël V1 43 00:57:20 05:28 10.99
152 609 DEROANNE Bertrand S 55 00:57:27 05:28 10.97
153 355 CABRET Christophe V2 26 00:57:32 05:29 10.95
154 557 HOFFMANN Steve V1 44 00:57:46 05:30 10.91
155 346 BOCK Benoît V2 27 00:58:07 05:32 10.84
156 662 FASTRES Alex S 56 00:58:08 05:32 10.84
157 391 PECHON Amélien S 57 00:58:09 05:32 10.83
158 1001 PEIFFER Laurent V1 45 00:58:12 05:33 10.82
159 201 SCHMIT Michel V1 46 00:58:14 05:33 10.82
160 648 HANCK Charlyne F 6 00:58:17 05:33 10.81
161 218 GERARD Joël V1 47 00:58:19 05:33 10.80
162 527 WÜRTH Lukas V2 28 00:58:23 05:34 10.79
163 445 TOUAZI Claude V2 29 00:58:26 05:34 10.78
164 94 DARDAR Stéphanie A2 5 00:58:28 05:34 10.78
165 651 LEMPEREUR Philippe V1 48 00:58:30 05:34 10.77
166 382 DELOBBE Benoît V2 30 00:58:32 05:34 10.76
167 471 CARELS Pascal V1 49 00:58:34 05:35 10.76
168 614 MALCUIT Alexandrine F 7 00:58:36 05:35 10.75
169 633 MOUTON Richard V1 50 00:58:37 05:35 10.75
170 309 ROUYER Patrick V2 31 00:58:39 05:35 10.74
171 574 LIMPACH Jessica F 8 00:58:41 05:35 10.74
172 191 SCHMITZ Bernard V2 32 00:58:43 05:36 10.73
173 537 DEHAYE Nicolas V2 33 00:58:45 05:36 10.72
174 30 EMONDS Patrick V1 51 00:58:46 05:36 10.72
175 359 THORNER Mickaël V1 52 00:58:49 05:36 10.71
176 242 MERVILLE Vincent V2 34 00:58:55 05:37 10.69
177 291 HANZIR Gauthier S 58 00:58:57 05:37 10.69
178 105 GABRIELLI Karine A2 6 00:58:59 05:37 10.68
179 611 GENETTE Alain V3 11 00:59:01 05:37 10.67
180 117 CARETTE Bertrand S 59 00:59:06 05:38 10.66
181 676 THOMÉ Jean V2 35 00:59:10 05:38 10.65
182 128 CORMAN Thierry S 60 00:59:11 05:38 10.64
183 490 DE BRESSING Charlotte F 9 00:59:13 05:38 10.64
184 302 LEMAIRE Pauline A1 7 00:59:15 05:39 10.63
185 29 MINET Eric V2 36 00:59:16 05:39 10.63
186 561 WIRTZ Pierre V2 37 00:59:19 05:39 10.62
187 179 HAYS Vincent V2 38 00:59:25 05:40 10.60
188 616 SERVAIS Françoise A2 7 00:59:28 05:40 10.59
189 200 MERLIN Roberto V4 1 00:59:30 05:40 10.59
190 523 MIHRAMANE Samir V1 53 00:59:32 05:40 10.58
191 1706 HENRARD Jean-Charles S 61 00:59:36 05:41 10.57
192 573 SBINNE Dany V2 39 00:59:38 05:41 10.56
193 1960 CLEMENT Serge V3 12 00:59:42 05:41 10.55
194 679 JEAN Laetitia F 10 00:59:45 05:41 10.54
195 563 DERELLE Michel V3 13 00:59:47 05:42 10.54
196 342 HANZIR Aurélien S 62 01:00:05 05:43 10.49
197 58 GILSON Raymond V3 14 01:00:21 05:45 10.44
198 1979 FELTZ Régis V1 54 01:00:25 05:45 10.43
199 681 ROLAND Roméo S 63 01:00:28 05:46 10.42
200 596 TARNUS Noémie F 11 01:00:33 05:46 10.40
201 429 VALET Paul V2 40 01:00:41 05:47 10.38
202 627 BERNARD Katia A2 8 01:00:42 05:47 10.38
203 407 BASTIEN Laurent V1 55 01:00:44 05:47 10.37
204 321 NIHANT Myriam A3 1 01:00:45 05:47 10.37
205 280 THIRY Benjamin S 64 01:00:47 05:47 10.36
206 415 MARTIN Jean-Louis V1 56 01:00:51 05:48 10.35
207 460 NEPPER Viviane A2 9 01:00:53 05:48 10.35
208 138 TEKEM Christian V1 57 01:00:55 05:48 10.34
209 124 BRAIBANT David V1 58 01:00:57 05:48 10.34
210 535 GILSON Delphine A1 8 01:01:05 05:49 10.31
211 54 BAUWENS Jean-Marie V3 15 01:01:10 05:50 10.30
212 300 LHOTTE René V3 16 01:01:26 05:51 10.26
213 556 SOARES Sonia A1 9 01:01:31 05:52 10.24
214 85 VALLET Anaïs F 12 01:01:32 05:52 10.24
215 87 GAUJARD Michaël S 65 01:01:33 05:52 10.24
216 351 ALLARD Pascal V2 41 01:01:35 05:52 10.23
217 197 JOUSTEN Céline A1 10 01:01:42 05:53 10.21
218 253 SEIVERT Yannick V1 59 01:01:43 05:53 10.21
219 354 AMOROSI Adelio V3 17 01:01:48 05:53 10.19
220 402 MARTIN Fabrice V1 60 01:01:57 05:54 10.17
221 638 CHARPENTIER Maelle F 13 01:02:07 05:55 10.14
222 399 MARTIN Christophe V1 61 01:02:10 05:55 10.13
223 374 BILOCQ Emmanuelle A2 10 01:02:20 05:56 10.11
224 276 DE ROECK Pauline A1 11 01:02:22 05:56 10.10
225 353 SIZAIRE Adrien S 66 01:02:29 05:57 10.08
226 356 AMANTINI Francis V3 18 01:02:33 05:57 10.07
227 600 BRUNEL Andy S 67 01:02:38 05:58 10.06
228 670 LEFEVRE Olivier V2 42 01:02:39 05:58 10.06
229 497 STOZ Sophie A1 12 01:02:40 05:58 10.05
230 281 RESIBOIS Dominique V3 19 01:02:42 05:58 10.05
231 432 BEVER Frédéric V2 43 01:02:44 05:58 10.04
232 388 REUTER Valérie A2 11 01:02:51 05:59 10.02
233 656 JOANNES Didier V1 62 01:02:53 05:59 10.02
234 524 ROLAND Etienne V2 44 01:02:56 06:00 10.01
235 247 BODELET Catherine A1 13 01:02:59 06:00 10.00
236 643 CHEVIGNE Andy V1 63 01:03:01 06:00 10.00
237 212 LAMORT Samuel V1 64 01:03:04 06:00 9.99
238 584 TINANT Chloé F 14 01:03:08 06:01 9.98
239 161 MEUNIER Pascal V2 45 01:03:11 06:01 9.97
240 696 HARDY Fabrice V1 65 01:03:23 06:02 9.94
241 677 DELCROIX Laetitia A1 14 01:03:27 06:03 9.93
242 678 GERARD David V1 66 01:03:29 06:03 9.92
243 664 MAHIN Jérôme S 68 01:03:30 06:03 9.92
244 542 DELWICHE Bastien S 69 01:03:40 06:04 9.90
245 163 LOOTVOET Cédric V1 67 01:03:53 06:05 9.86
246 442 EILON Hadas A1 15 01:03:55 06:05 9.86
247 2013 GONRY Frédéric V1 68 01:03:57 06:05 9.85
248 12 MORIS Nadine A2 12 01:03:59 06:06 9.85
249 510 AREND Frank V2 46 01:04:03 06:06 9.84
250 338 HANCK Fabrice V2 47 01:04:09 06:07 9.82
251 668 REMY Anne-Sophie A1 16 01:04:10 06:07 9.82
252 1962 DASNOY Freddy V2 48 01:04:11 06:07 9.82
253 617 DIDELON Guillaume S 70 01:04:13 06:07 9.81
254 395 HISSETTE Michaël V2 49 01:04:16 06:07 9.80
255 583 HAYS Isabelle A2 13 01:04:24 06:08 9.78
256 171 THIRY Eric V2 50 01:04:27 06:08 9.78
257 154 HUTLET Céline F 15 01:04:31 06:09 9.76
258 396 MARQUIS Christian V2 51 01:04:34 06:09 9.76
259 580 RENSON Stéphan V1 69 01:04:39 06:09 9.74
260 148 PALERMO Johan S 71 01:04:53 06:11 9.71
261 538 BLONDEAU Alban V1 70 01:04:55 06:11 9.70
262 172 BOMBAERS Murielle A3 2 01:04:57 06:11 9.70
263 665 PIRENNE Margaux F 16 01:04:59 06:11 9.69
264 667 ROUSSEAU Julien S 72 01:05:01 06:12 9.69
265 530 DE SALLE Olivier S 73 01:05:14 06:13 9.66
266 615 FAEZ Florian S 74 01:05:23 06:14 9.64
267 612 GENGLER Nell F 17 01:05:27 06:14 9.63
268 551 PERL Denis V3 20 01:05:29 06:14 9.62
269 196 MULLER Marina A1 17 01:05:48 06:16 9.57
270 546 LEMAIRE Guy V3 21 01:06:00 06:17 9.55
271 601 HANUS Céline A1 18 01:06:03 06:17 9.54
272 554 VANSTEELANDT Olivier V1 71 01:06:07 06:18 9.53
273 10 MARBEHANT Etienne V3 22 01:06:11 06:18 9.52
274 572 CATTRYSSE Barbara A1 19 01:06:15 06:19 9.51
275 366 BARRAS Thierry V3 23 01:06:18 06:19 9.50
276 337 MALFROID Benoît S 75 01:06:20 06:19 9.50
277 669 PIQUARD Marie-France A2 14 01:06:23 06:19 9.49
278 464 DANTINNE Frédéric V1 72 01:06:26 06:20 9.48
279 392 PECHON Corentin S 76 01:06:28 06:20 9.48
280 431 GONRY Patrick V1 73 01:06:32 06:20 9.47
281 525 DEBAUCHERON Thierry V2 52 01:06:35 06:20 9.46
282 369 THIRY Jean-Marc V2 53 01:06:39 06:21 9.45
283 293 MINGARELLI Pierre V4 2 01:06:54 06:22 9.42
284 170 GOURDANGE Dimitri V2 54 01:06:56 06:22 9.41
285 684 SEYLL Dylan S 77 01:06:59 06:23 9.41
286 481 COLLIGNON Jérémy S 78 01:07:02 06:23 9.40
287 657 DIEZ Robin JH 5 01:07:25 06:25 9.34
288 683 LENAERTS Gary S 79 01:07:35 06:26 9.32
289 606 NIHOUL Christopher S 80 01:07:39 06:27 9.31
290 647 LIBOIS Clotilde F 18 01:07:41 06:27 9.31
291 624 GILLES Pascal V2 55 01:07:45 06:27 9.30
292 625 BOSQUEE Pascale A2 15 01:07:51 06:28 9.29
293 434 DURLET Geneviève A3 3 01:07:52 06:28 9.28
294 365 GOFFINET Pascal V2 56 01:07:55 06:28 9.28
295 682 VIART Marianne A1 20 01:07:57 06:28 9.27
296 194 VANMECHELEN Michel V2 57 01:07:59 06:28 9.27
297 644 BACKES Christophe V2 58 01:08:01 06:29 9.26
298 485 HUSSE Bertrand S 81 01:08:25 06:31 9.21
299 642 LATTEUR Bénédicte A2 16 01:08:29 06:31 9.20
300 607 HIRTZMANN Stéphanie A1 21 01:08:32 06:32 9.19
301 111 DARGENTON Patrice V2 59 01:08:34 06:32 9.19
302 582 CROCHET Chantal A3 4 01:08:42 06:33 9.17
303 512 ZIMMER Guibert V3 24 01:08:43 06:33 9.17
304 483 HALLET Nadine A2 17 01:08:45 06:33 9.16
305 587 MALET Marc S 82 01:08:47 06:33 9.16
306 834 LIBOIS Raphaël V1 74 01:08:58 06:34 9.13
307 620 VAN CRAEN Olivier S 83 01:09:03 06:35 9.12
308 213 LAM Swen-Feî V1 75 01:09:10 06:35 9.11
309 314 PERIN Jean-Louis V3 25 01:09:17 06:36 9.09
310 641 BOUTAY Emilie A1 22 01:09:19 06:36 9.09
311 588 POELVOORDE Nora F 19 01:09:23 06:36 9.08
312 628 PONCIN Matthieu S 84 01:09:37 06:38 9.05
313 261 WOILLARD Valérie A2 18 01:09:41 06:38 9.04
314 156 LAMOULINE Denis V2 60 01:09:49 06:39 9.02
315 629 LECLERE Marie A1 23 01:09:55 06:40 9.01
316 631 GREISCH Catherine A1 24 01:10:02 06:40 9.00
317 613 LOUTSCH Marie-Elise A1 25 01:10:29 06:43 8.94
318 362 BECKER Didier V3 26 01:10:32 06:43 8.93
319 484 TOUILLAUX Sasha JF 1 01:10:34 06:43 8.93
320 493 ALLARD Damien S 85 01:10:39 06:44 8.92
321 53 OLIVIER André V3 27 01:11:02 06:46 8.87
322 144 HUBERTY Jean-Pol V2 61 01:11:04 06:46 8.86
323 570 PUCCIO Michel V2 62 01:11:23 06:48 8.83
324 671 WATELET Christophe V1 76 01:11:31 06:49 8.81
325 576 PICCHI Laurence A2 19 01:11:59 06:51 8.75
326 529 TIBESAR Matthieu S 86 01:12:02 06:52 8.75
327 686 THIBESAR Christophe S 87 01:12:03 06:52 8.74
328 673 HANE Laurence A2 20 01:12:32 06:54 8.69
329 558 COSIN Jacques V4 3 01:12:34 06:55 8.68
330 635 SANCHO Mary-Carmen A2 21 01:12:49 06:56 8.65
331 632 BORZOVA Majja A2 22 01:12:51 06:56 8.65
332 257 WELTER Jean-Marie V4 4 01:12:53 06:56 8.64
333 135 PAQUET Béatrice A1 26 01:12:56 06:57 8.64
334 548 SCHAACK Paul V1 77 01:13:07 06:58 8.62
335 298 CASCIANI Fatima A2 23 01:13:14 06:58 8.60
336 622 PIERRET Thierry V2 63 01:13:37 07:01 8.56
337 418 DORMOY Dorothée A1 27 01:13:44 07:01 8.54
338 245 REMER Christelle A2 24 01:14:06 07:03 8.50
339 115 CHRETIEN Gaëlle A1 28 01:14:11 07:04 8.49
340 231 PENNING Jean-François V1 78 01:14:16 07:04 8.48
341 410 WAMPACH Nicole A4 1 01:14:27 07:05 8.46
342 555 SINOCH Derben A1 29 01:14:29 07:06 8.46
343 62 SIZAIRE Jacques V3 28 01:14:35 07:06 8.45
344 36 DARAND Lara F 20 01:14:39 07:07 8.44
345 447 CHEVALIER Myriam A2 25 01:14:43 07:07 8.43
346 78 JACQUET Gilles V2 64 01:14:51 07:08 8.42
347 1964 GARDIEN Martine A3 5 01:14:54 07:08 8.41
348 2312 DASNOY Vanessa F 21 01:15:10 07:10 8.38
349 224 DEGAND Estelle F 22 01:15:59 07:14 8.29
350 618 VAN CRAEN Jean-Claude V3 29 01:16:27 07:17 8.24
351 528 ECHTERBILLE Bruno V1 79 01:16:35 07:18 8.23
352 311 QUEVY Laurence A2 26 01:16:39 07:18 8.22
353 59 BAAR Pierre V3 30 01:16:51 07:19 8.20
354 621 ZITELLA Carine A2 27 01:17:11 07:21 8.16
355 195 BERCK Bruno V1 80 01:17:13 07:21 8.16
356 263 WALTZING Sara F 23 01:17:49 07:25 8.10
357 310 PELLETIER Marylène A3 6 01:17:51 07:25 8.09
358 661 LANNOY Valérie A2 28 01:18:28 07:28 8.03
359 660 DHEUR Etienne V2 65 01:18:29 07:28 8.03
360 2331 VETEAU Olivier V1 81 01:27:27 08:20 7.20
361 157 NOEL Chantal A3 7 01:36:00 09:09 6.56
362 577 DARDAR Béatrice A2 29 02:00:00 11:26 5.25
363 578 DEMEYER Isabelle A2 30 02:00:00 11:26 5.25
364 579 LATOUR Christian V3 31 02:00:00 11:26 5.25
365 164 MULLER Valérie A2 31 02:00:00 11:26 5.25